sensor_id;sensor_type;location;lat;lon;timestamp;temperature;humidity
57719;DHT22;43561;50.090;18.522;2024-03-08T00:01:49;0.00;99.90
57719;DHT22;43561;50.090;18.522;2024-03-08T00:11:51;-0.20;99.90
57719;DHT22;43561;50.090;18.522;2024-03-08T00:21:54;-0.20;99.90
57719;DHT22;43561;50.090;18.522;2024-03-08T00:31:56;-0.30;99.90
57719;DHT22;43561;50.090;18.522;2024-03-08T00:41:58;-0.40;99.90
57719;DHT22;43561;50.090;18.522;2024-03-08T00:52:00;-0.30;99.90
57719;DHT22;43561;50.090;18.522;2024-03-08T01:02:02;-0.40;99.90
57719;DHT22;43561;50.090;18.522;2024-03-08T01:12:04;-0.50;99.90
57719;DHT22;43561;50.090;18.522;2024-03-08T01:22:06;-0.50;99.90
57719;DHT22;43561;50.090;18.522;2024-03-08T01:32:08;-0.60;99.90
57719;DHT22;43561;50.090;18.522;2024-03-08T01:42:10;-0.50;99.90
57719;DHT22;43561;50.090;18.522;2024-03-08T01:52:12;-0.70;99.90
57719;DHT22;43561;50.090;18.522;2024-03-08T02:02:17;-0.80;99.90
57719;DHT22;43561;50.090;18.522;2024-03-08T02:12:21;-0.80;99.90
57719;DHT22;43561;50.090;18.522;2024-03-08T02:22:23;-0.90;99.90
57719;DHT22;43561;50.090;18.522;2024-03-08T02:32:25;-1.00;99.90
57719;DHT22;43561;50.090;18.522;2024-03-08T02:42:28;-1.10;99.90
57719;DHT22;43561;50.090;18.522;2024-03-08T02:52:29;-1.10;99.90
57719;DHT22;43561;50.090;18.522;2024-03-08T03:02:31;-1.10;99.90
57719;DHT22;43561;50.090;18.522;2024-03-08T03:12:35;-1.10;99.90
57719;DHT22;43561;50.090;18.522;2024-03-08T03:22:37;-1.30;99.90
57719;DHT22;43561;50.090;18.522;2024-03-08T03:32:39;-1.40;99.90
57719;DHT22;43561;50.090;18.522;2024-03-08T03:42:42;-1.40;99.90
57719;DHT22;43561;50.090;18.522;2024-03-08T03:52:44;-1.50;99.90
57719;DHT22;43561;50.090;18.522;2024-03-08T04:02:46;-1.50;99.90
57719;DHT22;43561;50.090;18.522;2024-03-08T04:12:48;-1.50;99.90
57719;DHT22;43561;50.090;18.522;2024-03-08T04:22:50;-1.40;99.90
57719;DHT22;43561;50.090;18.522;2024-03-08T04:32:52;-1.50;99.90
57719;DHT22;43561;50.090;18.522;2024-03-08T04:42:54;-1.50;99.90
57719;DHT22;43561;50.090;18.522;2024-03-08T04:52:56;-1.40;99.90
57719;DHT22;43561;50.090;18.522;2024-03-08T05:02:58;-1.40;99.90
57719;DHT22;43561;50.090;18.522;2024-03-08T05:13:00;-1.50;99.90
57719;DHT22;43561;50.090;18.522;2024-03-08T05:23:04;-1.50;99.90
57719;DHT22;43561;50.090;18.522;2024-03-08T05:33:06;-1.50;99.90
57719;DHT22;43561;50.090;18.522;2024-03-08T05:43:10;-1.40;99.90
57719;DHT22;43561;50.090;18.522;2024-03-08T05:53:12;-1.40;99.90
57719;DHT22;43561;50.090;18.522;2024-03-08T06:03:14;-1.30;99.90
57719;DHT22;43561;50.090;18.522;2024-03-08T06:13:16;-1.10;99.90
57719;DHT22;43561;50.090;18.522;2024-03-08T06:23:18;-0.30;99.90
57719;DHT22;43561;50.090;18.522;2024-03-08T06:33:20;-0.50;99.90
57719;DHT22;43561;50.090;18.522;2024-03-08T06:43:22;-0.40;99.90
57719;DHT22;43561;50.090;18.522;2024-03-08T06:53:23;0.20;99.90
57719;DHT22;43561;50.090;18.522;2024-03-08T07:03:29;0.50;99.90
57719;DHT22;43561;50.090;18.522;2024-03-08T07:13:31;0.40;99.90
57719;DHT22;43561;50.090;18.522;2024-03-08T07:23:33;0.80;99.90
57719;DHT22;43561;50.090;18.522;2024-03-08T07:33:35;1.10;99.90
57719;DHT22;43561;50.090;18.522;2024-03-08T07:43:37;1.40;99.90
57719;DHT22;43561;50.090;18.522;2024-03-08T07:53:39;1.80;99.90
57719;DHT22;43561;50.090;18.522;2024-03-08T08:03:41;1.80;99.90
57719;DHT22;43561;50.090;18.522;2024-03-08T08:13:43;2.10;99.90
57719;DHT22;43561;50.090;18.522;2024-03-08T08:23:45;2.20;99.90
57719;DHT22;43561;50.090;18.522;2024-03-08T08:33:47;2.40;99.90
57719;DHT22;43561;50.090;18.522;2024-03-08T08:43:51;2.40;99.90
57719;DHT22;43561;50.090;18.522;2024-03-08T08:54:09;2.40;99.90
57719;DHT22;43561;50.090;18.522;2024-03-08T09:04:13;2.60;99.90
57719;DHT22;43561;50.090;18.522;2024-03-08T09:14:15;3.10;99.90
57719;DHT22;43561;50.090;18.522;2024-03-08T09:24:17;2.80;99.90
57719;DHT22;43561;50.090;18.522;2024-03-08T09:34:19;3.10;99.90
57719;DHT22;43561;50.090;18.522;2024-03-08T09:44:29;3.00;99.90
57719;DHT22;43561;50.090;18.522;2024-03-08T09:54:31;3.10;99.90
57719;DHT22;43561;50.090;18.522;2024-03-08T10:04:33;3.50;99.90
57719;DHT22;43561;50.090;18.522;2024-03-08T10:14:39;3.70;99.90
57719;DHT22;43561;50.090;18.522;2024-03-08T10:24:41;4.10;99.90
57719;DHT22;43561;50.090;18.522;2024-03-08T10:34:43;4.40;99.90
57719;DHT22;43561;50.090;18.522;2024-03-08T10:44:53;4.60;99.90
57719;DHT22;43561;50.090;18.522;2024-03-08T10:55:01;4.50;99.90
57719;DHT22;43561;50.090;18.522;2024-03-08T11:05:04;4.30;99.90
57719;DHT22;43561;50.090;18.522;2024-03-08T11:15:12;4.90;99.90
57719;DHT22;43561;50.090;18.522;2024-03-08T11:35:36;4.80;99.90
57719;DHT22;43561;50.090;18.522;2024-03-08T11:45:38;5.00;99.90
57719;DHT22;43561;50.090;18.522;2024-03-08T11:55:40;4.70;99.90
57719;DHT22;43561;50.090;18.522;2024-03-08T12:05:42;4.80;99.90
57719;DHT22;43561;50.090;18.522;2024-03-08T12:15:45;5.10;99.90
57719;DHT22;43561;50.090;18.522;2024-03-08T12:25:47;5.20;99.90
57719;DHT22;43561;50.090;18.522;2024-03-08T12:35:53;5.20;99.90
57719;DHT22;43561;50.090;18.522;2024-03-08T12:45:56;5.00;99.90
57719;DHT22;43561;50.090;18.522;2024-03-08T12:55:58;5.00;99.90
57719;DHT22;43561;50.090;18.522;2024-03-08T13:06:01;5.10;99.90
57719;DHT22;43561;50.090;18.522;2024-03-08T13:16:03;5.30;99.90
57719;DHT22;43561;50.090;18.522;2024-03-08T13:26:09;5.30;99.90
57719;DHT22;43561;50.090;18.522;2024-03-08T13:36:11;5.20;99.80
57719;DHT22;43561;50.090;18.522;2024-03-08T13:46:14;5.10;99.70
57719;DHT22;43561;50.090;18.522;2024-03-08T13:56:16;5.20;99.90
57719;DHT22;43561;50.090;18.522;2024-03-08T14:06:18;5.10;99.90
57719;DHT22;43561;50.090;18.522;2024-03-08T14:16:24;5.30;99.90
57719;DHT22;43561;50.090;18.522;2024-03-08T14:26:26;5.40;99.60
57719;DHT22;43561;50.090;18.522;2024-03-08T14:36:28;5.50;99.30
57719;DHT22;43561;50.090;18.522;2024-03-08T14:46:30;5.30;99.60
57719;DHT22;43561;50.090;18.522;2024-03-08T14:56:33;5.30;99.00
57719;DHT22;43561;50.090;18.522;2024-03-08T15:06:38;5.30;99.70
57719;DHT22;43561;50.090;18.522;2024-03-08T15:16:40;5.30;98.70
57719;DHT22;43561;50.090;18.522;2024-03-08T15:26:42;5.40;99.00
57719;DHT22;43561;50.090;18.522;2024-03-08T15:36:44;5.30;98.70
57719;DHT22;43561;50.090;18.522;2024-03-08T15:46:47;5.20;99.00
57719;DHT22;43561;50.090;18.522;2024-03-08T15:56:49;5.20;99.40
57719;DHT22;43561;50.090;18.522;2024-03-08T16:06:51;5.00;99.80
57719;DHT22;43561;50.090;18.522;2024-03-08T16:16:53;5.00;99.90
57719;DHT22;43561;50.090;18.522;2024-03-08T16:26:55;4.80;99.90
57719;DHT22;43561;50.090;18.522;2024-03-08T16:36:57;4.60;99.90
57719;DHT22;43561;50.090;18.522;2024-03-08T16:47:00;4.40;99.90
57719;DHT22;43561;50.090;18.522;2024-03-08T16:57:02;4.20;99.90
57719;DHT22;43561;50.090;18.522;2024-03-08T17:07:04;4.10;99.90
57719;DHT22;43561;50.090;18.522;2024-03-08T17:17:06;3.90;99.90
57719;DHT22;43561;50.090;18.522;2024-03-08T17:27:08;3.70;99.90
57719;DHT22;43561;50.090;18.522;2024-03-08T17:37:10;3.40;99.90
57719;DHT22;43561;50.090;18.522;2024-03-08T17:47:12;3.30;99.90
57719;DHT22;43561;50.090;18.522;2024-03-08T17:57:14;3.10;99.90
57719;DHT22;43561;50.090;18.522;2024-03-08T18:07:16;3.20;99.90
57719;DHT22;43561;50.090;18.522;2024-03-08T18:17:18;3.10;99.90
57719;DHT22;43561;50.090;18.522;2024-03-08T18:27:20;3.10;99.90
57719;DHT22;43561;50.090;18.522;2024-03-08T18:37:22;3.10;99.90
57719;DHT22;43561;50.090;18.522;2024-03-08T18:47:24;3.10;99.90
57719;DHT22;43561;50.090;18.522;2024-03-08T18:57:26;3.10;99.90
57719;DHT22;43561;50.090;18.522;2024-03-08T19:07:27;3.00;99.90
57719;DHT22;43561;50.090;18.522;2024-03-08T19:17:29;2.70;99.90
57719;DHT22;43561;50.090;18.522;2024-03-08T19:27:31;2.50;99.90
57719;DHT22;43561;50.090;18.522;2024-03-08T19:37:33;2.40;99.90
57719;DHT22;43561;50.090;18.522;2024-03-08T19:47:36;2.30;99.90
57719;DHT22;43561;50.090;18.522;2024-03-08T19:57:38;2.10;99.90
57719;DHT22;43561;50.090;18.522;2024-03-08T20:07:43;1.90;99.90
57719;DHT22;43561;50.090;18.522;2024-03-08T20:17:46;2.00;99.90
57719;DHT22;43561;50.090;18.522;2024-03-08T20:27:55;1.80;99.90
57719;DHT22;43561;50.090;18.522;2024-03-08T20:37:58;1.70;99.90
57719;DHT22;43561;50.090;18.522;2024-03-08T20:48:01;1.50;99.90
57719;DHT22;43561;50.090;18.522;2024-03-08T20:58:03;1.40;99.90
57719;DHT22;43561;50.090;18.522;2024-03-08T21:08:05;1.40;99.90
57719;DHT22;43561;50.090;18.522;2024-03-08T21:18:08;1.30;99.90
57719;DHT22;43561;50.090;18.522;2024-03-08T21:28:10;1.10;99.90
57719;DHT22;43561;50.090;18.522;2024-03-08T21:38:12;1.10;99.90
57719;DHT22;43561;50.090;18.522;2024-03-08T21:48:14;0.80;99.90
57719;DHT22;43561;50.090;18.522;2024-03-08T21:58:16;0.70;99.90
57719;DHT22;43561;50.090;18.522;2024-03-08T22:08:18;0.80;99.90
57719;DHT22;43561;50.090;18.522;2024-03-08T22:18:19;0.60;99.90
57719;DHT22;43561;50.090;18.522;2024-03-08T22:28:21;0.50;99.90
57719;DHT22;43561;50.090;18.522;2024-03-08T22:38:23;0.40;99.90
57719;DHT22;43561;50.090;18.522;2024-03-08T22:48:25;0.40;99.90
57719;DHT22;43561;50.090;18.522;2024-03-08T22:58:27;0.30;99.90
57719;DHT22;43561;50.090;18.522;2024-03-08T23:08:30;0.40;99.90
57719;DHT22;43561;50.090;18.522;2024-03-08T23:18:32;0.50;99.90
57719;DHT22;43561;50.090;18.522;2024-03-08T23:28:34;0.50;99.90
57719;DHT22;43561;50.090;18.522;2024-03-08T23:38:36;0.50;99.90
57719;DHT22;43561;50.090;18.522;2024-03-08T23:48:37;0.40;99.90
57719;DHT22;43561;50.090;18.522;2024-03-08T23:58:39;0.60;99.90
